Time;durP1;ratioP1;P1;durP2;ratioP2;P2;SDS_P1;SDS_P2;PMS_P1;PMS_P2;Temp;Humidity;BMP_temperature;BMP_pressure;BME280_temperature;BME280_humidity;BME280_pressure;Samples;Min_cycle;Max_cycle;Signal;HPM_P1;HPM_P2
2022/07/21 00:01:51;;;;;;;16.63;8.13;;;25.50;58.60;;;;;;5033424;28;20117;-68
2022/07/21 00:04:17;;;;;;;17.73;8.70;;;25.50;58.60;;;;;;5033410;28;20052;-68
2022/07/21 00:06:44;;;;;;;20.33;9.13;;;25.50;59.40;;;;;;5032977;28;20048;-69
2022/07/21 00:09:11;;;;;;;23.27;10.00;;;25.50;59.00;;;;;;5033313;28;20033;-69
2022/07/21 00:11:38;;;;;;;15.80;7.80;;;25.40;59.10;;;;;;5033433;28;20049;-69
2022/07/21 00:14:05;;;;;;;14.27;7.65;;;25.40;59.30;;;;;;5034000;28;20116;-68
2022/07/21 00:16:31;;;;;;;15.52;8.02;;;25.50;59.40;;;;;;5033182;28;20033;-69
2022/07/21 00:18:59;;;;;;;17.50;8.18;;;25.30;59.90;;;;;;5033295;28;20030;-68
2022/07/21 00:21:25;;;;;;;12.57;7.07;;;25.30;60.40;;;;;;5032730;28;20030;-69
2022/07/21 00:23:51;;;;;;;11.35;7.00;;;25.20;60.70;;;;;;5033011;28;20038;-69
2022/07/21 00:26:17;;;;;;;9.73;7.05;;;25.20;60.90;;;;;;5033605;28;20033;-68
2022/07/21 00:28:42;;;;;;;14.90;6.97;;;25.20;61.30;;;;;;5031901;28;20026;-68
2022/07/21 00:31:08;;;;;;;15.68;6.45;;;25.20;61.60;;;;;;5032710;28;20029;-69
2022/07/21 00:33:34;;;;;;;16.60;6.47;;;25.20;62.00;;;;;;5032673;28;20374;-69
2022/07/21 00:36:00;;;;;;;13.23;6.70;;;25.10;62.40;;;;;;5032606;28;20037;-69
2022/07/21 00:38:26;;;;;;;11.48;6.78;;;25.20;62.60;;;;;;5032415;28;20033;-68
2022/07/21 00:40:53;;;;;;;15.80;6.75;;;25.20;62.60;;;;;;5032820;28;20033;-68
2022/07/21 00:43:19;;;;;;;10.10;6.63;;;25.20;62.60;;;;;;5032925;28;20041;-70
2022/07/21 00:45:45;;;;;;;15.10;6.45;;;25.20;62.80;;;;;;5032473;28;20427;-68
2022/07/21 00:48:11;;;;;;;16.70;6.82;;;25.20;62.70;;;;;;5032501;28;20029;-69
2022/07/21 00:50:37;;;;;;;11.02;6.68;;;25.20;63.10;;;;;;5032370;28;20033;-69
2022/07/21 00:53:03;;;;;;;14.20;6.32;;;25.20;62.80;;;;;;5032852;28;20021;-68
2022/07/21 00:55:29;;;;;;;9.32;6.18;;;25.20;63.30;;;;;;5032248;28;20333;-69
2022/07/21 00:57:56;;;;;;;10.73;5.88;;;25.20;63.40;;;;;;5032309;28;20587;-70
2022/07/21 01:00:28;;;;;;;9.25;6.50;;;25.20;63.30;;;;;;5032189;28;20104;-69
2022/07/21 01:02:55;;;;;;;11.40;6.60;;;25.20;63.20;;;;;;5030757;28;20273;-69
2022/07/21 01:05:21;;;;;;;14.57;7.13;;;25.30;63.50;;;;;;5032564;28;20030;-69
2022/07/21 01:07:50;;;;;;;14.77;6.60;;;25.20;63.70;;;;;;5030412;28;20060;-69
2022/07/21 01:10:17;;;;;;;18.23;7.28;;;25.20;63.80;;;;;;5032000;28;20456;-68
2022/07/21 01:12:45;;;;;;;11.90;7.05;;;25.10;64.40;;;;;;5031634;28;20225;-68
2022/07/21 01:15:12;;;;;;;13.05;6.60;;;25.10;64.60;;;;;;5031125;28;20025;-69
2022/07/21 01:17:39;;;;;;;9.60;6.15;;;25.00;66.60;;;;;;5031557;28;20033;-69
2022/07/21 01:20:09;;;;;;;13.82;6.40;;;25.00;67.20;;;;;;5031393;28;20025;-70
2022/07/21 01:22:36;;;;;;;16.75;6.75;;;25.00;68.20;;;;;;5025409;28;20057;-69
2022/07/21 01:25:04;;;;;;;9.35;6.03;;;25.00;68.90;;;;;;5031450;28;20040;-68
2022/07/21 01:27:30;;;;;;;9.65;5.97;;;25.10;69.40;;;;;;5031749;28;20100;-69
2022/07/21 01:29:56;;;;;;;11.43;5.40;;;25.20;70.30;;;;;;5030680;28;20083;-70
2022/07/21 01:32:22;;;;;;;8.20;5.63;;;25.10;70.60;;;;;;5032363;28;20029;-69
2022/07/21 01:34:49;;;;;;;10.35;5.13;;;25.20;70.90;;;;;;5030447;28;20029;-70
2022/07/21 01:37:19;;;;;;;6.13;3.85;;;25.10;71.50;;;;;;5011359;28;20356;-69
2022/07/21 01:42:31;;;;;;;7.18;3.83;;;25.10;73.10;;;;;;5012168;28;20352;-69
2022/07/21 01:44:57;;;;;;;4.57;3.20;;;25.00;74.00;;;;;;5011827;28;20025;-68
2022/07/21 01:47:23;;;;;;;6.70;3.15;;;25.00;74.50;;;;;;5012373;28;20364;-69
2022/07/21 01:49:50;;;;;;;6.15;2.90;;;25.10;74.20;;;;;;5011672;28;20065;-71
2022/07/21 01:52:15;;;;;;;4.60;3.28;;;25.20;74.30;;;;;;5010515;28;20484;-69
2022/07/21 01:54:41;;;;;;;7.45;3.70;;;25.20;74.40;;;;;;5011452;28;20141;-70
2022/07/21 01:57:07;;;;;;;4.72;2.90;;;25.30;74.70;;;;;;5010659;28;20321;-70
2022/07/21 01:59:33;;;;;;;3.47;2.40;;;25.00;78.20;;;;;;5011560;28;20403;-69
2022/07/21 02:01:59;;;;;;;2.65;2.35;;;25.00;79.30;;;;;;5012192;28;20026;-70
2022/07/21 02:04:25;;;;;;;4.78;2.53;;;25.00;80.40;;;;;;5011552;28;20034;-68
2022/07/21 02:06:51;;;;;;;5.93;2.40;;;25.10;79.90;;;;;;5011141;28;20045;-69
2022/07/21 02:09:17;;;;;;;4.28;2.65;;;25.20;80.00;;;;;;5011477;28;20087;-70
2022/07/21 02:11:42;;;;;;;6.63;2.50;;;25.20;81.40;;;;;;5010243;28;20025;-68
2022/07/21 02:14:08;;;;;;;5.90;2.80;;;25.20;82.40;;;;;;5010610;28;20041;-70
2022/07/21 02:16:34;;;;;;;6.68;3.25;;;25.10;83.20;;;;;;5011262;28;20585;-69
2022/07/21 02:19:00;;;;;;;5.45;3.50;;;25.00;85.80;;;;;;5010804;28;20359;-69
2022/07/21 02:21:26;;;;;;;6.68;3.70;;;24.70;88.90;;;;;;5010888;28;20363;-69
2022/07/21 02:23:52;;;;;;;6.95;3.83;;;24.60;91.50;;;;;;5011257;28;20030;-71
2022/07/21 02:26:18;;;;;;;7.57;3.92;;;24.70;92.40;;;;;;5011437;28;20030;-68
2022/07/21 02:28:44;;;;;;;6.00;4.32;;;24.70;92.50;;;;;;5011114;28;20045;-68
2022/07/21 02:31:10;;;;;;;7.88;4.38;;;24.80;92.70;;;;;;5010945;28;20029;-69
2022/07/21 02:33:36;;;;;;;7.25;4.88;;;24.80;93.00;;;;;;5009793;28;20366;-69
2022/07/21 02:36:02;;;;;;;7.75;4.45;;;24.80;93.30;;;;;;5011225;28;20033;-70
2022/07/21 02:38:31;;;;;;;11.55;4.82;;;24.70;93.50;;;;;;5011075;28;20100;-69
2022/07/21 02:40:57;;;;;;;7.45;4.65;;;24.60;94.00;;;;;;5011397;28;20022;-69
2022/07/21 02:43:23;;;;;;;8.05;4.65;;;24.60;94.00;;;;;;5010975;28;20033;-68
2022/07/21 02:45:49;;;;;;;7.85;4.43;;;24.60;94.20;;;;;;5010503;28;20077;-69
2022/07/21 02:48:15;;;;;;;7.60;4.80;;;24.50;95.00;;;;;;5010889;28;20073;-69
2022/07/21 02:50:43;;;;;;;10.07;5.57;;;24.50;95.20;;;;;;5011177;28;20022;-69
2022/07/21 02:53:10;;;;;;;;;;;24.40;95.90;;;;;;5011741;28;20022;-70
2022/07/21 02:55:36;;;;;;;12.50;6.70;;;24.10;96.40;;;;;;5010460;28;19995;-69
2022/07/21 02:58:11;;;;;;;13.25;6.40;;;24.20;96.00;;;;;;5010727;28;20034;-69
2022/07/21 03:00:43;;;;;;;13.45;6.90;;;24.10;96.70;;;;;;5010699;28;20072;-69
2022/07/21 03:03:09;;;;;;;11.88;6.88;;;24.10;97.10;;;;;;5010765;28;20037;-70
2022/07/21 03:05:35;;;;;;;11.63;6.63;;;24.10;96.70;;;;;;5009423;28;20026;-70
2022/07/21 03:08:02;;;;;;;11.75;7.47;;;24.30;96.50;;;;;;5011123;28;20022;-68
2022/07/21 03:10:28;;;;;;;11.30;7.70;;;24.20;97.00;;;;;;5010767;28;20040;-70
2022/07/21 03:12:53;;;;;;;12.15;7.45;;;24.10;96.90;;;;;;5009515;28;20117;-70
2022/07/21 03:15:19;;;;;;;13.35;7.15;;;24.20;96.60;;;;;;5010469;28;20053;-70
2022/07/21 03:17:45;;;;;;;11.05;7.63;;;24.20;96.40;;;;;;5010720;28;20034;-69
2022/07/21 03:20:11;;;;;;;12.57;8.02;;;24.30;96.90;;;;;;5011261;28;20406;-69
2022/07/21 03:22:37;;;;;;;14.23;7.88;;;24.20;97.00;;;;;;5010394;28;20102;-68
2022/07/21 03:25:03;;;;;;;20.48;8.00;;;24.20;97.20;;;;;;5010530;28;20065;-68
2022/07/21 03:27:29;;;;;;;14.68;9.07;;;24.20;97.00;;;;;;5010219;28;20120;-70
2022/07/21 03:29:54;;;;;;;15.02;8.73;;;24.20;97.20;;;;;;5010265;28;20486;-69
2022/07/21 03:32:20;;;;;;;13.75;8.63;;;24.20;97.20;;;;;;5014043;28;20029;-70
2022/07/21 03:34:46;;;;;;;12.90;8.25;;;24.10;97.60;;;;;;5014254;28;20060;-69
2022/07/21 03:37:12;;;;;;;14.93;9.00;;;24.10;97.50;;;;;;5014219;28;20372;-69
2022/07/21 03:39:38;;;;;;;16.70;8.65;;;24.10;97.40;;;;;;5014302;28;20026;-68
2022/07/21 03:42:04;;;;;;;19.15;9.75;;;24.20;97.20;;;;;;5014265;28;20034;-69
2022/07/21 03:44:29;;;;;;;14.77;9.23;;;24.20;97.40;;;;;;5014726;28;20022;-69
2022/07/21 03:46:58;;;;;;;17.17;9.77;;;24.20;97.20;;;;;;5012751;28;20046;-68
2022/07/21 03:49:24;;;;;;;15.60;8.88;;;24.30;97.20;;;;;;5014179;28;20038;-70
2022/07/21 03:51:50;;;;;;;14.77;8.80;;;24.30;97.50;;;;;;5013926;28;20034;-69
2022/07/21 03:54:16;;;;;;;10.93;8.25;;;24.20;97.00;;;;;;5013736;28;20354;-69
2022/07/21 03:56:41;;;;;;;14.55;8.43;;;24.20;96.60;;;;;;5013666;28;20057;-69
2022/07/21 03:59:07;;;;;;;13.18;7.72;;;24.00;96.60;;;;;;5014139;28;20038;-70
2022/07/21 04:01:33;;;;;;;15.75;8.68;;;24.00;96.20;;;;;;5013910;28;20036;-68
2022/07/21 04:03:59;;;;;;;14.30;8.02;;;23.80;96.90;;;;;;5013513;28;20341;-69
2022/07/21 04:06:24;;;;;;;16.45;8.55;;;23.70;96.40;;;;;;5013782;28;20346;-69
2022/07/21 04:08:50;;;;;;;20.65;9.27;;;23.70;96.50;;;;;;5013659;28;20041;-70
2022/07/21 04:11:16;;;;;;;20.23;8.40;;;23.70;96.70;;;;;;5012820;28;20048;-69
2022/07/21 04:13:41;;;;;;;16.65;9.00;;;23.70;96.40;;;;;;5013558;28;20088;-69
2022/07/21 04:16:07;;;;;;;13.95;8.52;;;23.80;96.20;;;;;;5013437;28;20038;-69
2022/07/21 04:18:33;;;;;;;18.10;8.65;;;23.70;96.50;;;;;;5012235;28;20363;-67
2022/07/21 04:20:58;;;;;;;15.25;8.63;;;23.40;96.80;;;;;;5013530;28;20444;-70
2022/07/21 04:23:24;;;;;;;15.82;8.75;;;23.60;96.20;;;;;;5013909;28;20310;-70
2022/07/21 04:25:50;;;;;;;13.20;7.75;;;23.60;96.10;;;;;;5013370;28;20033;-69
2022/07/21 04:28:16;;;;;;;15.95;8.73;;;23.60;95.70;;;;;;5013312;28;20462;-69
2022/07/21 04:30:42;;;;;;;15.95;8.77;;;23.50;95.90;;;;;;5013288;28;20316;-69
2022/07/21 04:33:07;;;;;;;16.40;8.05;;;23.40;96.10;;;;;;5012998;28;20091;-69
2022/07/21 04:35:33;;;;;;;14.57;8.82;;;23.60;96.30;;;;;;5012111;28;20026;-69
2022/07/21 04:37:59;;;;;;;16.60;9.43;;;23.60;96.00;;;;;;5013608;28;20050;-68
2022/07/21 04:40:25;;;;;;;17.60;8.88;;;23.60;96.60;;;;;;5013106;28;20038;-69
2022/07/21 04:42:51;;;;;;;18.90;9.93;;;23.60;96.30;;;;;;5010950;28;20038;-70
2022/07/21 04:45:17;;;;;;;19.15;9.65;;;23.70;96.10;;;;;;5012882;28;20452;-69
2022/07/21 04:47:49;;;;;;;15.27;9.40;;;23.70;96.30;;;;;;5012901;28;20045;-69
2022/07/21 04:50:16;;;;;;;17.77;8.43;;;23.70;96.40;;;;;;5012295;28;20014;-69
2022/07/21 04:52:42;;;;;;;18.23;9.50;;;23.70;96.40;;;;;;5013007;28;20030;-70
2022/07/21 04:55:09;;;;;;;12.57;8.07;;;23.70;96.20;;;;;;5012736;28;20507;-68
2022/07/21 04:57:42;;;;;;;15.25;8.73;;;23.70;96.60;;;;;;5011690;28;20033;-69
2022/07/21 05:00:11;;;;;;;14.38;8.35;;;23.60;97.10;;;;;;5012772;28;20041;-69
2022/07/21 05:02:37;;;;;;;18.27;9.30;;;23.60;97.00;;;;;;5012610;28;20336;-69
2022/07/21 05:05:04;;;;;;;16.65;9.25;;;23.60;97.30;;;;;;5013172;28;20018;-68
2022/07/21 05:07:30;;;;;;;15.55;9.20;;;23.60;97.20;;;;;;5011858;28;20172;-70
2022/07/21 05:09:57;;;;;;;14.23;8.00;;;23.60;97.20;;;;;;5012349;28;20077;-70
2022/07/21 05:12:22;;;;;;;14.50;8.80;;;23.60;97.20;;;;;;5012692;28;20037;-69
2022/07/21 05:14:48;;;;;;;16.92;7.90;;;23.50;97.60;;;;;;5012401;28;20022;-70
2022/07/21 05:17:14;;;;;;;14.15;8.30;;;23.50;97.60;;;;;;5012538;28;20057;-69
2022/07/21 05:19:40;;;;;;;13.20;8.43;;;23.40;97.90;;;;;;5012286;28;20038;-70
2022/07/21 05:22:06;;;;;;;19.35;7.55;;;23.50;97.60;;;;;;5012094;28;20041;-69
2022/07/21 05:24:31;;;;;;;13.82;8.35;;;23.20;97.70;;;;;;5012230;28;20544;-69
2022/07/21 05:26:57;;;;;;;20.20;7.53;;;23.30;97.60;;;;;;5011880;28;20081;-70
2022/07/21 05:29:23;;;;;;;13.95;7.32;;;23.20;97.60;;;;;;5012508;28;20318;-69
2022/07/21 05:31:49;;;;;;;14.27;7.35;;;23.30;97.60;;;;;;5012102;28;20448;-70
2022/07/21 05:34:15;;;;;;;17.25;7.40;;;23.40;97.30;;;;;;5010882;28;20038;-68
2022/07/21 05:36:40;;;;;;;11.45;6.63;;;23.50;97.30;;;;;;5011804;28;20113;-69
2022/07/21 05:39:06;;;;;;;11.82;6.53;;;23.50;97.10;;;;;;5011707;28;20313;-69
2022/07/21 05:41:32;;;;;;;10.38;6.10;;;23.40;97.10;;;;;;5011858;28;20451;-69
2022/07/21 05:43:57;;;;;;;8.63;5.95;;;23.30;97.00;;;;;;5012060;28;20026;-70
2022/07/21 05:46:23;;;;;;;11.07;6.30;;;23.40;97.00;;;;;;5011923;28;20479;-70
2022/07/21 05:48:49;;;;;;;16.45;5.50;;;23.40;96.80;;;;;;5010879;28;20372;-70
2022/07/21 05:51:14;;;;;;;10.52;5.55;;;23.30;96.90;;;;;;5012045;28;20488;-70
2022/07/21 05:53:40;;;;;;;12.57;5.30;;;23.20;96.90;;;;;;5011600;28;20419;-71
2022/07/21 05:56:06;;;;;;;11.20;5.85;;;22.90;97.20;;;;;;5010973;28;20057;-73
2022/07/21 05:58:34;;;;;;;67.65;43.72;;;22.90;97.20;;;;;;5012005;28;20479;-71
2022/07/21 06:01:09;;;;;;;77.40;46.92;;;23.10;96.90;;;;;;5011544;28;20034;-72
2022/07/21 06:03:36;;;;;;;22.98;11.82;;;23.10;96.60;;;;;;5011802;28;20113;-70
2022/07/21 06:06:05;;;;;;;11.57;6.00;;;23.00;96.80;;;;;;5010590;28;20076;-74
2022/07/21 06:08:31;;;;;;;10.27;5.85;;;23.10;96.70;;;;;;5011539;28;20037;-71
2022/07/21 06:10:57;;;;;;;8.63;4.75;;;23.30;96.50;;;;;;5012361;28;20022;-71
2022/07/21 06:13:23;;;;;;;55.58;32.75;;;23.30;96.70;;;;;;5011671;28;20037;-77
2022/07/21 06:15:48;;;;;;;186.80;98.68;;;23.20;96.80;;;;;;5012006;28;20136;-74
2022/07/21 06:18:14;;;;;;;54.10;31.88;;;23.30;96.70;;;;;;5011110;28;20037;-74
2022/07/21 06:20:41;;;;;;;15.40;10.13;;;23.30;96.70;;;;;;5012209;28;20080;-72
2022/07/21 06:23:07;;;;;;;8.43;5.32;;;23.40;96.50;;;;;;5011929;28;20356;-67
2022/07/21 06:25:36;;;;;;;8.98;4.78;;;23.50;96.40;;;;;;5010258;28;20526;-73
2022/07/21 06:28:02;;;;;;;11.30;5.10;;;23.50;96.60;;;;;;5011218;28;20041;-72
2022/07/21 06:30:28;;;;;;;9.10;5.57;;;23.50;96.60;;;;;;5011100;28;20037;-70
2022/07/21 06:32:53;;;;;;;11.77;5.40;;;23.30;96.90;;;;;;5011065;28;20034;-71
2022/07/21 06:35:19;;;;;;;93.82;57.42;;;23.50;96.60;;;;;;5011854;28;20026;-71
2022/07/21 06:37:46;;;;;;;534.78;387.83;;;23.50;96.80;;;;;;5011571;28;20026;-72
2022/07/21 06:40:12;;;;;;;23.30;15.55;;;23.60;96.80;;;;;;5010943;28;20472;-69
2022/07/21 06:42:38;;;;;;;8.93;5.22;;;23.50;96.70;;;;;;5010950;28;20037;-72
2022/07/21 06:45:05;;;;;;;9.27;5.18;;;23.50;96.90;;;;;;5009532;28;20033;-71
2022/07/21 06:47:30;;;;;;;8.00;5.10;;;23.40;97.10;;;;;;5011135;28;20034;-71
2022/07/21 06:50:02;;;;;;;7.07;5.55;;;23.60;96.80;;;;;;5011579;28;20103;-71
2022/07/21 06:52:28;;;;;;;12.52;6.43;;;23.50;96.90;;;;;;5010705;28;20308;-68
2022/07/21 06:54:53;;;;;;;13.43;6.80;;;23.60;96.90;;;;;;5010718;28;20094;-72
2022/07/21 06:57:19;;;;;;;6.72;5.05;;;23.70;96.50;;;;;;5011121;28;20033;-72
2022/07/21 06:59:45;;;;;;;8.07;5.22;;;23.70;96.60;;;;;;5009739;28;20496;-72
2022/07/21 07:02:11;;;;;;;18.77;13.07;;;23.50;96.90;;;;;;5010054;28;20025;-71
2022/07/21 07:04:36;;;;;;;9.95;7.53;;;23.60;96.90;;;;;;5010929;28;20026;-70
2022/07/21 07:07:02;;;;;;;7.15;3.78;;;23.60;96.70;;;;;;5009174;28;20119;-70
2022/07/21 07:09:28;;;;;;;5.53;3.65;;;23.50;96.60;;;;;;5009619;28;20025;-71
2022/07/21 07:12:02;;;;;;;7.22;3.30;;;23.50;96.60;;;;;;5010760;28;20107;-73
2022/07/21 07:14:29;;;;;;;5.53;3.45;;;23.60;96.40;;;;;;5010145;28;20022;-73
2022/07/21 07:16:55;;;;;;;8.60;3.78;;;23.50;96.70;;;;;;5010896;28;20034;-73
2022/07/21 07:19:20;;;;;;;5.25;3.72;;;23.40;96.90;;;;;;5010764;28;20041;-71
2022/07/21 07:21:46;;;;;;;4.97;2.95;;;23.40;96.90;;;;;;5010626;28;20423;-71
2022/07/21 07:24:12;;;;;;;6.22;2.63;;;23.40;96.90;;;;;;5010906;28;20360;-73
2022/07/21 07:26:37;;;;;;;4.90;2.80;;;23.30;97.00;;;;;;5010569;28;20044;-71
2022/07/21 07:29:03;;;;;;;4.15;2.47;;;23.40;97.00;;;;;;5010938;28;20022;-70
2022/07/21 07:31:29;;;;;;;4.28;2.30;;;23.50;96.70;;;;;;5022343;28;20025;-73
2022/07/21 07:33:57;;;;;;;2.63;1.95;;;23.40;96.70;;;;;;5030592;28;20111;-71
2022/07/21 07:36:26;;;;;;;2.40;2.05;;;23.40;96.70;;;;;;5029242;28;20439;-71
2022/07/21 07:38:53;;;;;;;4.38;2.08;;;23.20;97.10;;;;;;5030155;28;20033;-72
2022/07/21 07:41:20;;;;;;;3.00;2.10;;;23.40;96.80;;;;;;5029366;28;20367;-68
2022/07/21 07:43:46;;;;;;;9.02;2.13;;;23.50;96.60;;;;;;5029217;28;20375;-69
2022/07/21 07:46:12;;;;;;;3.22;2.35;;;23.30;96.80;;;;;;5029984;28;20125;-71
2022/07/21 07:48:40;;;;;;;47.10;26.70;;;23.10;96.90;;;;;;5030364;28;20482;-70
2022/07/21 07:51:06;;;;;;;;;;;23.30;96.60;;;;;;5030787;28;20489;-74
2022/07/21 07:53:32;;;;;;;8.13;4.38;;;23.30;96.60;;;;;;5030301;28;19948;-75
2022/07/21 07:55:58;;;;;;;27.05;13.13;;;22.90;97.60;;;;;;5029388;28;20046;-72
2022/07/21 07:58:23;;;;;;;9.48;6.50;;;22.80;98.50;;;;;;5030175;28;20036;-69
2022/07/21 08:00:49;;;;;;;32.50;19.88;;;22.80;98.90;;;;;;5029033;28;20033;-71
2022/07/21 08:03:15;;;;;;;3.92;2.38;;;23.00;99.10;;;;;;5030361;28;20026;-71
2022/07/21 08:05:41;;;;;;;3.20;1.65;;;23.00;98.90;;;;;;5030231;28;20084;-70
2022/07/21 08:08:07;;;;;;;3.08;1.50;;;22.90;99.40;;;;;;5030416;28;20022;-70
2022/07/21 08:10:33;;;;;;;2.05;1.85;;;22.90;99.30;;;;;;5030131;28;20029;-69
2022/07/21 08:12:59;;;;;;;1.90;1.48;;;23.10;99.00;;;;;;5030119;28;20415;-71
2022/07/21 08:15:25;;;;;;;1.60;1.13;;;23.00;99.00;;;;;;5030309;28;20070;-70
2022/07/21 08:17:51;;;;;;;2.28;1.60;;;22.80;99.30;;;;;;5031416;28;20029;-72
2022/07/21 08:20:17;;;;;;;1.65;1.10;;;22.70;99.50;;;;;;5034412;28;20037;-70
2022/07/21 08:22:43;;;;;;;3.47;1.30;;;22.70;99.40;;;;;;5033867;28;20026;-68
2022/07/21 08:25:08;;;;;;;1.63;1.40;;;22.80;98.90;;;;;;5033798;28;20029;-71
2022/07/21 08:27:34;;;;;;;2.38;1.30;;;22.80;99.30;;;;;;5033559;28;20045;-68
2022/07/21 08:30:00;;;;;;;2.78;1.60;;;22.90;99.10;;;;;;5031386;28;20718;-68
2022/07/21 08:32:25;;;;;;;3.33;2.88;;;22.90;99.20;;;;;;5034398;28;20053;-72
2022/07/21 08:34:51;;;;;;;4.45;1.77;;;22.90;99.70;;;;;;5032908;28;20037;-72
2022/07/21 08:37:20;;;;;;;13.43;11.27;;;23.00;99.10;;;;;;5033970;28;20051;-74
2022/07/21 08:39:47;;;;;;;1.30;1.17;;;23.00;98.90;;;;;;5033233;28;20033;-71
2022/07/21 08:42:14;;;;;;;1.85;1.30;;;23.20;99.00;;;;;;5032912;28;20105;-70
2022/07/21 08:44:42;;;;;;;1.90;1.50;;;23.40;98.30;;;;;;5032794;28;20017;-71
2022/07/21 08:47:08;;;;;;;1.52;1.30;;;23.70;98.20;;;;;;5032067;28;20018;-69
2022/07/21 08:49:35;;;;;;;2.63;2.20;;;24.00;97.80;;;;;;5032889;28;20436;-71
2022/07/21 08:52:01;;;;;;;1.58;1.00;;;24.40;97.20;;;;;;5033086;28;20034;-71
2022/07/21 08:54:27;;;;;;;3.05;1.65;;;24.30;96.40;;;;;;5032810;28;20056;-69
2022/07/21 08:56:53;;;;;;;5.78;1.20;;;24.60;96.60;;;;;;5032833;28;20410;-70
2022/07/21 08:59:19;;;;;;;2.53;1.80;;;24.60;95.40;;;;;;5033356;28;20064;-71
2022/07/21 09:01:45;;;;;;;4.78;1.52;;;24.50;95.60;;;;;;5032873;28;20029;-71
2022/07/21 09:04:22;;;;;;;3.25;1.60;;;24.40;95.70;;;;;;5032848;28;20089;-69
2022/07/21 09:06:59;;;;;;;5.07;2.60;;;24.40;95.80;;;;;;5032884;28;20087;-73
2022/07/21 09:09:27;;;;;;;3.63;1.83;;;24.20;95.10;;;;;;5031776;28;20432;-72
2022/07/21 09:11:54;;;;;;;2.88;2.08;;;24.00;95.50;;;;;;5032775;28;20040;-70
2022/07/21 09:14:31;;;;;;;2.70;2.50;;;24.20;95.40;;;;;;5033265;28;20040;-72
2022/07/21 09:16:59;;;;;;;7.53;2.50;;;24.10;95.00;;;;;;5032979;28;20037;-72
2022/07/21 09:19:26;;;;;;;;;;;24.00;95.20;;;;;;5033223;28;20040;-71
2022/07/21 09:21:54;;;;;;;5.67;3.13;;;24.00;95.20;;;;;;5032392;28;20271;-71
2022/07/21 09:24:32;;;;;;;78.22;47.83;;;24.00;95.30;;;;;;5032352;28;20037;-71
2022/07/21 09:26:59;;;;;;;;;;;24.00;95.40;;;;;;5032919;28;20393;-74
2022/07/21 09:29:25;;;;;;;92.75;50.33;;;23.90;95.10;;;;;;5032552;28;19904;-74
2022/07/21 09:31:51;;;;;;;130.10;70.28;;;23.80;95.20;;;;;;5032273;28;20037;-72
2022/07/21 09:34:20;;;;;;;11.48;7.40;;;23.70;95.20;;;;;;5032186;28;20033;-72
2022/07/21 09:36:58;;;;;;;9.02;6.40;;;23.30;95.60;;;;;;5032115;28;20375;-72
2022/07/21 09:39:59;;;;;;;9.63;6.95;;;23.30;96.00;;;;;;5032189;28;20080;-71
2022/07/21 09:42:31;;;;;;;8.90;6.72;;;23.20;96.00;;;;;;5029065;28;20030;-71
2022/07/21 09:45:07;;;;;;;9.23;7.53;;;23.20;96.00;;;;;;5032206;28;20090;-69
2022/07/21 09:47:34;;;;;;;12.30;7.90;;;23.30;95.50;;;;;;5032180;28;20084;-70
2022/07/21 09:50:01;;;;;;;12.07;6.77;;;23.30;95.50;;;;;;5032521;28;20071;-68
2022/07/21 09:52:38;;;;;;;10.00;7.63;;;23.30;95.50;;;;;;5032173;28;20255;-70
2022/07/21 09:55:09;;;;;;;13.57;8.48;;;23.30;95.50;;;;;;5031666;28;20128;-71
2022/07/21 09:57:35;;;;;;;18.77;11.07;;;23.20;95.50;;;;;;5035556;28;20025;-71
2022/07/21 10:00:09;;;;;;;21.60;10.98;;;23.10;95.70;;;;;;5031782;28;20029;-71
2022/07/21 10:02:35;;;;;;;8.98;7.20;;;23.30;95.70;;;;;;5032042;28;20030;-73
2022/07/21 10:05:13;;;;;;;9.68;7.43;;;23.40;95.40;;;;;;5032387;28;20032;-72
2022/07/21 10:07:42;;;;;;;8.95;6.82;;;23.60;95.30;;;;;;5031799;28;20044;-71
2022/07/21 10:10:09;;;;;;;11.68;7.53;;;23.70;94.90;;;;;;5031764;28;20033;-70
2022/07/21 10:12:35;;;;;;;11.45;7.45;;;23.80;94.90;;;;;;5031529;28;20029;-71
2022/07/21 10:15:01;;;;;;;12.57;8.90;;;23.90;94.80;;;;;;5031416;28;20035;-70
2022/07/21 10:17:28;;;;;;;17.08;8.30;;;24.00;94.60;;;;;;5032164;28;20122;-71
2022/07/21 10:20:24;;;;;;;13.73;7.97;;;24.30;94.60;;;;;;5030844;28;20030;-71
2022/07/21 10:23:14;;;;;;;12.98;7.75;;;24.50;94.00;;;;;;5031600;28;20375;-71
2022/07/21 10:25:41;;;;;;;9.93;7.95;;;24.40;93.90;;;;;;5031561;28;20120;-70
2022/07/21 10:28:22;;;;;;;10.75;8.07;;;24.60;93.90;;;;;;5031048;28;20038;-71
2022/07/21 10:30:57;;;;;;;12.82;8.30;;;24.60;93.70;;;;;;5031504;28;20033;-72
2022/07/21 10:33:42;;;;;;;11.00;8.25;;;24.70;93.60;;;;;;5031328;28;20026;-68
2022/07/21 10:36:09;;;;;;;21.85;9.13;;;24.70;93.00;;;;;;5031541;28;20049;-72
2022/07/21 10:38:36;;;;;;;11.93;7.90;;;24.90;92.80;;;;;;5031270;28;20052;-72
2022/07/21 10:41:05;;;;;;;17.55;11.13;;;25.10;92.50;;;;;;5030716;28;20045;-76
2022/07/21 10:43:31;;;;;;;126.47;70.97;;;25.20;92.10;;;;;;5030431;28;20041;-71
2022/07/21 10:45:58;;;;;;;17.83;10.85;;;25.40;92.10;;;;;;5030980;28;20029;-71
2022/07/21 10:48:36;;;;;;;9.95;7.63;;;25.70;91.20;;;;;;5030740;28;20111;-71
2022/07/21 10:51:08;;;;;;;11.15;7.40;;;25.80;90.90;;;;;;5030778;28;20029;-71
2022/07/21 10:53:35;;;;;;;11.00;7.75;;;26.10;90.60;;;;;;5030823;28;20025;-70
2022/07/21 10:56:01;;;;;;;12.40;7.25;;;26.00;90.00;;;;;;5031098;28;20532;-71
2022/07/21 10:58:29;;;;;;;9.48;6.97;;;26.10;90.10;;;;;;5030851;28;20082;-70
2022/07/21 11:00:57;;;;;;;10.85;7.50;;;26.20;89.80;;;;;;5030635;28;20128;-73
2022/07/21 11:03:26;;;;;;;8.40;6.90;;;26.20;89.30;;;;;;5030595;28;20125;-71
2022/07/21 11:06:15;;;;;;;9.40;6.95;;;26.30;89.50;;;;;;5030620;28;20490;-75
2022/07/21 11:08:43;;;;;;;9.20;7.28;;;26.30;88.90;;;;;;5030665;28;20117;-71
2022/07/21 11:11:10;;;;;;;10.07;7.05;;;26.10;89.10;;;;;;5031320;28;20025;-75
2022/07/21 11:14:03;;;;;;;8.80;7.57;;;26.00;88.70;;;;;;5029286;28;20033;-71
2022/07/21 11:16:48;;;;;;;9.13;6.72;;;26.40;88.40;;;;;;5031039;28;20051;-74
2022/07/21 11:19:29;;;;;;;10.13;7.53;;;26.80;87.70;;;;;;5030519;28;20026;-73
2022/07/21 11:21:57;;;;;;;8.60;6.50;;;26.90;86.10;;;;;;5030558;28;20579;-75
2022/07/21 11:24:23;;;;;;;;;;;26.90;85.80;;;;;;5031011;28;20427;-71
2022/07/21 11:27:23;;;;;;;10.60;6.93;;;26.80;85.80;;;;;;5030496;28;20438;-74
2022/07/21 11:29:50;;;;;;;12.38;9.05;;;27.10;86.20;;;;;;5007528;28;20042;-74
2022/07/21 11:32:17;;;;;;;11.30;8.25;;;27.20;85.60;;;;;;5029953;28;20026;-74
2022/07/21 11:34:54;;;;;;;8.02;6.03;;;27.30;84.40;;;;;;5030299;28;20030;-73
2022/07/21 11:37:37;;;;;;;7.93;5.45;;;27.20;83.20;;;;;;5030607;28;20025;-74
2022/07/21 11:40:18;;;;;;;7.85;6.40;;;27.30;81.50;;;;;;5030981;28;20030;-71
2022/07/21 11:42:47;;;;;;;8.35;6.60;;;27.30;81.50;;;;;;5030223;28;20087;-74
2022/07/21 11:45:14;;;;;;;8.75;6.43;;;27.30;81.50;;;;;;5029948;28;20032;-74
2022/07/21 11:47:40;;;;;;;10.55;6.85;;;27.30;80.80;;;;;;5030391;28;20038;-75
2022/07/21 11:50:11;;;;;;;8.93;6.40;;;27.30;80.30;;;;;;5030896;28;20017;-74
2022/07/21 11:52:39;;;;;;;9.18;6.20;;;27.40;80.40;;;;;;5031704;28;20043;-75
2022/07/21 11:55:08;;;;;;;8.45;5.82;;;27.20;79.20;;;;;;5034172;28;20113;-76
2022/07/21 11:57:35;;;;;;;7.60;6.53;;;27.20;79.70;;;;;;5034233;28;20021;-76
2022/07/21 12:00:05;;;;;;;7.22;5.57;;;27.30;79.50;;;;;;5034580;28;20045;-75
2022/07/21 12:02:31;;;;;;;7.78;6.35;;;27.30;79.90;;;;;;5034356;28;20034;-75
2022/07/21 12:05:06;;;;;;;9.63;5.90;;;27.30;79.30;;;;;;5034457;28;20439;-74
2022/07/21 12:07:39;;;;;;;7.30;5.70;;;27.30;79.70;;;;;;5033962;28;20037;-74
2022/07/21 12:10:22;;;;;;;7.93;5.15;;;27.20;78.40;;;;;;5034199;28;20033;-72
2022/07/21 12:12:50;;;;;;;7.18;4.55;;;27.30;77.50;;;;;;5033583;28;20108;-74
2022/07/21 12:15:29;;;;;;;9.52;4.97;;;27.30;77.70;;;;;;5034097;28;20029;-75
2022/07/21 12:18:20;;;;;;;5.47;4.82;;;27.20;77.60;;;;;;5033912;28;20113;-73
2022/07/21 12:20:46;;;;;;;5.57;4.60;;;27.10;77.50;;;;;;5030241;28;20057;-72
2022/07/21 12:23:28;;;;;;;8.00;5.13;;;27.10;77.70;;;;;;5033698;28;20045;-72
2022/07/21 12:25:56;;;;;;;6.60;5.40;;;27.10;77.80;;;;;;5033402;28;20065;-75
2022/07/21 12:28:56;;;;;;;6.60;5.25;;;27.00;77.70;;;;;;5032160;28;20475;-75
2022/07/21 12:31:23;;;;;;;5.90;4.80;;;27.00;77.90;;;;;;5032085;28;20033;-72
2022/07/21 12:33:55;;;;;;;6.22;5.20;;;26.90;78.00;;;;;;5032160;28;20072;-74
2022/07/21 12:36:21;;;;;;;7.90;4.70;;;26.80;78.00;;;;;;5033086;28;20090;-72
2022/07/21 12:38:50;;;;;;;8.60;5.18;;;26.50;80.90;;;;;;5033278;28;20100;-76
2022/07/21 12:41:18;;;;;;;8.80;5.55;;;26.30;83.80;;;;;;5033789;28;20021;-72
2022/07/21 12:43:57;;;;;;;7.53;5.72;;;26.30;85.70;;;;;;5032949;28;20064;-71
2022/07/21 12:46:32;;;;;;;9.13;5.22;;;26.20;88.50;;;;;;5033313;28;20116;-73
2022/07/21 12:49:09;;;;;;;7.28;5.65;;;26.30;88.20;;;;;;5033312;28;20363;-75
2022/07/21 12:51:35;;;;;;;12.50;6.50;;;26.20;88.60;;;;;;5033172;28;20028;-72